Latest Weather Observations for Julia Creek

IDQ60801

Issued at 10:32 pm EST Friday 15 November 2019 (issued every 10 minutes, with the page automatically refreshed every 10 minutes)

About weather observations | Map of weather stations | Latest weather observations for QLD | Other Formats
Station Details ID: 029058 Name: JULIA CREEK AIRPORT Lat: -20.67 Lon: 141.72 Height: 122.5 m
Data from the previous 72 hours. | See also: Recent months at Julia Creek
Date/Time
EST
Temp
°C
App
Temp
°C
Dew
Point
°C
Rel
Hum
%
Delta-T
°C
Wind Press
QNH
hPa
Press
MSL
hPa
Rain since
9am
mm
Dir  Spd
km/h
Gust
km/h
Spd
kts
Gust
kts
15/10:30pm 26.5 19.4 -13.9 6 14.7 S 20 24 11 13 1011.4 1010.6 0.0
15/10:00pm 27.0 19.9 -13.6 6 14.9 SSW 20 24 11 13 1011.1 1010.2 0.0
15/09:30pm 25.2 18.7 -13.0 7 13.9 SSW 17 19 9 10 1010.7 1009.8 0.0
15/09:00pm 25.2 18.3 -13.0 7 13.9 SSW 19 20 10 11 1010.5 1009.6 0.0
15/08:30pm 26.1 19.2 -14.2 6 14.5 SSW 19 20 10 11 1010.4 1009.5 0.0
15/08:00pm 27.8 21.3 -13.0 6 15.3 SSW 17 19 9 10 1010.1 1009.2 0.0
15/07:30pm 29.7 23.2 -13.9 5 16.4 SSW 17 19 9 10 1009.6 1008.7 0.0
15/07:00pm 32.5 25.9 -14.7 4 18.1 SSW 17 20 9 11 1009.1 1008.2 0.0
15/06:30pm 35.5 29.4 -12.6 4 19.6 SSW 15 17 8 9 1008.8 1007.9 0.0
15/06:00pm 37.3 30.3 -14.9 3 20.9 SSW 19 28 10 15 1008.5 1007.6 0.0
15/05:30pm 38.1 31.2 -14.4 3 21.3 SSW 19 24 10 13 1008.1 1007.2 0.0
15/05:00pm 38.8 34.2 -14.0 3 21.7 SSW 7 15 4 8 1007.8 1006.9 0.0
15/04:30pm 38.5 34.0 -14.2 3 21.5 NNE 6 11 3 6 1007.9 1007.0 0.0
15/04:00pm 38.9 32.7 -13.9 3 21.7 SW 15 24 8 13 1008.1 1007.2 0.0
15/03:30pm 38.9 32.7 -13.9 3 21.7 SW 15 22 8 12 1008.2 1007.3 0.0
15/03:00pm 38.3 32.0 -10.7 4 21.1 NW 17 24 9 13 1008.4 1007.5 0.0
15/02:30pm 38.8 33.0 -14.0 3 21.6 SSW 13 24 7 13 1008.8 1007.9 0.0
15/02:00pm 38.2 31.9 -10.8 4 21.0 SW 17 32 9 17 1009.2 1008.3 0.0
15/01:30pm 38.6 33.0 -10.5 4 21.2 ESE 13 26 7 14 1009.5 1008.6 0.0
15/01:00pm 37.5 31.5 -11.3 4 20.6 SSW 15 28 8 15 1009.9 1009.0 0.0
15/12:30pm 37.6 32.0 -11.2 4 20.7 SSE 13 20 7 11 1010.5 1009.6 0.0
15/12:00pm 36.2 29.4 -12.2 4 20.0 SE 19 30 10 16 1011.0 1010.1 0.0
15/11:30am 36.0 29.2 -12.3 4 19.8 S 19 30 10 16 1011.4 1010.6 0.0
15/11:00am 35.6 28.6 -12.6 4 19.6 SSE 20 30 11 16 1011.7 1010.9 0.0
15/10:30am 35.4 28.2 -9.9 5 19.2 SE 22 32 12 17 1012.1 1011.3 0.0
15/10:00am 33.8 26.1 -11.0 5 18.4 SE 24 30 13 16 1012.4 1011.6 0.0
15/09:30am 32.4 24.6 -12.0 5 17.7 SE 24 32 13 17 1012.8 1012.0 0.0
15/09:00am 31.3 23.3 -10.5 6 16.9 SE 26 33 14 18 1012.9 1012.1 0.0
15/08:30am 29.4 21.0 -9.9 7 15.8 SE 28 35 15 19 1012.7 1011.9 0.0
15/08:00am 27.8 19.9 -9.4 8 14.9 SE 26 35 14 19 1012.6 1011.8 0.0
15/07:30am 25.1 17.1 -10.0 9 13.5 SSE 26 35 14 19 1012.5 1011.7 0.0
15/07:00am 22.3 14.7 -9.5 11 12.0 SSE 24 30 13 16 1012.3 1011.5 0.0
15/06:30am 19.3 13.1 -8.8 14 10.4 S 17 22 9 12 1012.1 1011.3 0.0
15/06:00am 15.3 9.9 -8.8 18 8.5 S 13 17 7 9 1011.9 1011.1 0.0
15/05:30am 14.8 9.3 -9.3 18 8.3 SSE 13 15 7 8 1011.7 1010.9 0.0
15/05:00am 15.3 9.9 -8.2 19 8.4 SSE 13 15 7 8 1011.5 1010.7 0.0
15/04:30am 16.3 11.2 -9.5 16 9.1 SSE 11 11 6 6 1011.3 1010.5 0.0
15/04:00am 16.9 11.4 -9.9 15 9.4 SSE 13 15 7 8 1011.3 1010.5 0.0
15/03:30am 17.5 12.0 -10.3 14 9.7 S 13 15 7 8 1010.9 1010.0 0.0
15/03:00am 18.7 12.7 -11.2 12 10.5 S 15 19 8 10 1010.6 1009.7 0.0
15/02:30am 19.8 13.4 -11.5 11 11.0 S 17 20 9 11 1010.5 1009.6 0.0
15/02:00am 20.3 13.5 -12.3 10 11.4 S 19 20 10 11 1010.5 1009.6 0.0
15/01:30am 20.6 14.2 -12.0 10 11.5 S 17 20 9 11 1010.6 1009.7 0.0
15/01:00am 22.3 15.2 -13.5 8 12.5 S 20 22 11 12 1010.8 1009.9 0.0
15/12:30am 23.0 16.1 -13.0 8 12.8 S 19 22 10 12 1010.8 1009.9 0.0
15/12:00am 23.3 16.4 -12.8 8 12.9 S 19 22 10 12 1011.0 1010.1 0.0
 
Date/Time
EST
Temp
°C
App
Temp
°C
Dew
Point
°C
Rel
Hum
%
Delta-T
°C
Wind Press
QNH
hPa
Press
MSL
hPa
Rain since
9am
mm
Dir  Spd
km/h
Gust
km/h
Spd
kts
Gust
kts
14/11:30pm 24.1 17.0 -13.8 7 13.4 S 20 24 11 13 1011.1 1010.2 0.0
14/11:00pm 24.7 17.6 -13.4 7 13.7 S 20 24 11 13 1011.2 1010.3 0.0
14/10:30pm 25.7 18.2 -14.5 6 14.3 S 22 28 12 15 1011.0 1010.1 0.0
14/10:00pm 25.8 18.7 -14.5 6 14.4 S 20 24 11 13 1011.0 1010.1 0.0
14/09:30pm 26.4 19.3 -14.0 6 14.6 S 20 24 11 13 1010.9 1010.0 0.0
14/09:00pm 26.6 19.4 -16.1 5 15.0 S 20 22 11 12 1010.6 1009.7 0.0
14/08:30pm 27.1 20.1 -15.7 5 15.2 S 19 22 10 12 1010.4 1009.5 0.0
14/08:00pm 28.2 21.0 -15.0 5 15.7 S 20 22 11 12 1010.1 1009.2 0.0
14/07:30pm 28.5 21.9 -14.7 5 15.8 SSW 17 20 9 11 1009.9 1009.0 0.0
14/07:00pm 31.4 24.8 -15.4 4 17.5 S 17 20 9 11 1009.5 1008.6 0.0
14/06:30pm 34.4 27.1 -16.9 3 19.3 S 20 24 11 13 1009.3 1008.4 0.0
14/06:00pm 35.8 28.2 -15.9 3 20.1 SSE 22 32 12 17 1008.9 1008.0 0.0
14/05:30pm 36.5 28.5 -15.5 3 20.4 S 24 30 13 16 1008.7 1007.8 0.0
14/05:00pm 37.1 29.2 -15.1 3 20.8 SSE 24 35 13 19 1008.7 1007.8 0.0
14/04:30pm 37.5 30.0 -14.8 3 20.9 S 22 32 12 17 1008.8 1007.9 0.0
14/04:00pm 37.7 29.4 -14.7 3 21.1 S 26 33 14 18 1009.1 1008.2 0.0
14/03:30pm 38.0 30.1 -14.5 3 21.2 SSE 24 43 13 23 1009.3 1008.4 0.0
14/03:00pm 37.4 29.1 -14.9 3 20.9 SSE 26 33 14 18 1009.6 1008.7 0.0
14/02:30pm 37.5 30.9 -14.8 3 20.9 SSE 17 39 9 21 1010.0 1009.1 0.0
14/02:00pm 37.3 30.5 -11.4 4 20.5 SSE 19 44 10 24 1010.5 1009.6 0.0
14/01:30pm 36.8 29.8 -15.3 3 20.6 SSE 19 30 10 16 1011.2 1010.3 0.0
14/01:00pm 36.4 28.6 -12.0 4 20.0 SE 24 33 13 18 1011.7 1010.9 0.0
14/12:30pm 37.1 30.3 -11.6 4 20.4 SE 19 30 10 16 1012.2 1011.4 0.0
14/12:00pm 35.6 28.8 -9.8 5 19.3 SE 20 33 11 18 1012.9 1012.1 0.0
14/11:30am 35.7 28.5 -9.7 5 19.4 SSE 22 39 12 21 1013.4 1012.6 0.0
14/11:00am 34.6 26.2 -10.5 5 18.8 SE 28 41 15 22 1014.0 1013.1 0.0
14/10:30am 33.5 24.3 -11.2 5 18.3 SE 32 41 17 22 1014.4 1013.5 0.0
14/10:00am 32.8 23.5 -9.4 6 17.6 SE 33 44 18 24 1014.6 1013.7 0.0
14/09:30am 31.4 21.3 -10.4 6 17.0 SE 37 46 20 25 1015.0 1014.1 0.0
14/09:00am 30.1 19.7 -9.4 7 16.1 SE 39 50 21 27 1015.1 1014.2 0.0
14/08:30am 28.8 18.4 -8.7 8 15.3 SSE 39 48 21 26 1014.8 1013.9 0.0
14/08:00am 27.4 17.7 -9.7 8 14.7 SSE 35 46 19 25 1014.8 1013.9 0.0
14/07:30am 25.2 16.1 -9.9 9 13.5 SSE 32 41 17 22 1014.9 1014.0 0.0
14/07:00am 23.5 16.0 -8.6 11 12.4 S 24 32 13 17 1014.7 1013.8 0.0
14/06:30am 20.5 14.8 -7.9 14 10.8 S 15 19 8 10 1014.6 1013.7 0.0
14/06:00am 18.3 12.3 -7.1 17 9.6 SSE 17 17 9 9 1014.2 1013.3 0.0
14/05:30am 19.4 13.7 -7.9 15 10.3 SSE 15 20 8 11 1013.7 1012.9 0.0
14/05:00am 20.1 14.3 -8.2 14 10.7 SSE 15 17 8 9 1013.3 1012.5 0.0
14/04:30am 21.0 15.1 -9.4 12 11.3 S 15 17 8 9 1012.8 1012.0 0.0
14/04:00am 22.4 15.8 -9.5 11 12.0 S 19 24 10 13 1012.4 1011.6 0.0
14/03:30am 23.1 16.4 -10.1 10 12.5 S 19 22 10 12 1012.2 1011.4 0.0
14/03:00am 23.5 16.9 -9.8 10 12.6 S 19 24 10 13 1012.1 1011.3 0.0
14/02:30am 24.4 17.5 -10.5 9 13.2 S 20 24 11 13 1011.9 1011.1 0.0
14/02:00am 25.4 18.2 -9.7 9 13.6 S 22 30 12 16 1011.9 1011.1 0.0
14/01:30am 25.8 18.6 -9.4 9 13.8 S 22 28 12 15 1012.1 1011.3 0.0
14/01:00am 26.8 19.2 -10.2 8 14.4 S 24 33 13 18 1012.4 1011.6 0.0
14/12:30am 27.6 19.3 -9.6 8 14.8 S 28 33 15 18 1012.5 1011.7 0.0
14/12:00am 28.6 19.9 -8.8 8 15.2 S 30 39 16 21 1012.5 1011.7 0.0
 
Date/Time
EST
Temp
°C
App
Temp
°C
Dew
Point
°C
Rel
Hum
%
Delta-T
°C
Wind Press
QNH
hPa
Press
MSL
hPa
Rain since
9am
mm
Dir  Spd
km/h
Gust
km/h
Spd
kts
Gust
kts
13/11:30pm 29.1 20.6 -7.0 9 15.2 S 30 37 16 20 1012.5 1011.7 0.0
13/11:00pm 29.9 21.1 -6.4 9 15.6 S 32 39 17 21 1012.4 1011.6 0.0
13/10:30pm 30.6 21.6 -5.8 9 15.9 S 33 43 18 23 1012.2 1011.4 0.0
13/10:00pm 31.2 22.5 -5.4 9 16.2 S 32 46 17 25 1011.8 1011.0 0.0
13/09:30pm 31.2 23.2 -5.4 9 16.2 S 28 39 15 21 1011.4 1010.6 0.0
13/09:28pm 31.3 23.3 -5.3 9 16.2 S 28 39 15 21 1011.3 1010.5 0.0
13/09:00pm 29.2 23.2 -6.9 9 15.3 SSW 17 20 9 11 1011.0 1010.1 0.0
13/08:30pm 28.8 22.6 -8.7 8 15.3 SSW 17 20 9 11 1010.5 1009.6 0.0
13/08:00pm 29.7 23.6 -8.0 8 15.7 S 17 19 9 10 1010.0 1009.1 0.0
13/07:30pm 32.3 26.0 -9.8 6 17.4 S 17 19 9 10 1009.7 1008.8 0.0
13/07:00pm 34.5 28.4 -8.2 6 18.5 S 17 20 9 11 1009.3 1008.4 0.0
13/06:30pm 37.1 30.3 -8.7 5 20.1 SSE 20 26 11 14 1008.9 1008.0 0.0
13/06:00pm 38.4 30.4 -10.7 4 21.1 S 26 35 14 19 1008.7 1007.8 0.0
13/05:30pm 39.4 31.8 -10.0 4 21.6 SSW 24 35 13 19 1008.6 1007.7 0.0
13/05:00pm 40.1 31.5 -13.1 3 22.4 SSW 28 41 15 22 1008.5 1007.6 0.0
13/04:30pm 40.2 32.4 -13.0 3 22.4 SSW 24 39 13 21 1008.5 1007.6 0.0
13/04:00pm 41.0 32.8 -12.5 3 22.9 S 26 35 14 19 1008.6 1007.7 0.0
13/03:30pm 40.3 32.5 -13.0 3 22.5 SSW 24 43 13 23 1008.8 1007.9 0.0
13/03:00pm 40.4 33.6 -9.3 4 22.2 S 20 37 11 20 1009.0 1008.1 0.0
13/02:30pm 39.9 33.6 -9.7 4 21.9 S 17 28 9 15 1009.3 1008.4 0.0
13/02:00pm 40.6 33.0 -9.2 4 22.3 SSE 24 35 13 19 1009.9 1009.0 0.0
13/01:30pm 39.7 33.4 -9.8 4 21.8 SE 17 28 9 15 1010.4 1009.5 0.0
13/01:00pm 39.6 33.3 -9.9 4 21.8 SSE 17 32 9 17 1010.9 1010.0 0.0
13/12:30pm 39.3 32.6 -10.1 4 21.6 S 19 28 10 15 1011.5 1010.7 0.0
13/12:00pm 38.5 33.4 -5.4 6 20.5 SE 13 20 7 11 1012.0 1011.2 0.0
13/11:30am 37.0 32.4 -4.4 7 19.4 SE 11 20 6 11 1012.5 1011.7 0.0
13/11:00am 36.5 30.7 -4.8 7 19.2 SE 17 26 9 14 1013.2 1012.4 0.0
13/10:30am 35.6 30.5 -5.5 7 18.7 ESE 13 22 7 12 1013.4 1012.6 0.0
13/10:00am 34.8 28.5 -6.0 7 18.3 ESE 19 30 10 16 1013.6 1012.8 0.0
13/09:30am 33.6 27.2 -5.2 8 17.5 SE 20 30 11 16 1014.0 1013.1 0.0
13/09:00am 33.0 25.8 -5.6 8 17.2 SE 24 32 13 17 1014.0 1013.1 0.0
13/08:30am 32.2 23.9 -4.6 9 16.6 SSE 30 35 16 19 1013.5 1012.7 0.0
13/08:00am 31.1 22.4 -5.5 9 16.1 SSE 32 39 17 21 1013.4 1012.6 0.0
13/07:30am 28.4 21.1 -2.6 13 14.0 S 26 32 14 17 1013.2 1012.4 0.0
13/07:00am 25.6 20.0 -2.9 15 12.6 S 17 26 9 14 1013.0 1012.2 0.0
13/06:30am 22.9 17.9 -1.2 20 10.7 S 15 17 8 9 1012.6 1011.8 0.0
13/06:00am 21.7 17.1 1.4 26 9.4 S 15 17 8 9 1012.2 1011.4 0.0
13/05:30am 22.8 19.4 5.7 33 8.7 SSW 13 17 7 9 1011.8 1011.0 0.0
13/05:00am 24.0 22.3 9.9 41 7.8 SSW 9 13 5 7 1011.6 1010.8 0.0
13/04:30am 25.5 22.7 11.3 41 8.1 SSW 17 20 9 11 1011.5 1010.7 0.0
13/04:00am 24.2 21.7 9.8 40 7.9 SW 13 15 7 8 1011.0 1010.1 0.0
13/03:30am 25.3 24.2 10.7 40 8.2 W 7 7 4 4 1010.7 1009.8 0.0
13/03:00am 26.0 25.3 11.4 40 8.3 W 6 7 3 4 1010.6 1009.7 0.0
13/02:30am 26.1 24.8 11.1 39 8.5 W 9 11 5 6 1010.5 1009.6 0.0
13/02:00am 25.9 23.5 10.1 37 8.8 W 13 17 7 9 1010.8 1009.9 0.0
13/01:30am 26.8 24.3 10.9 37 9.0 W 15 20 8 11 1011.0 1010.1 0.0
13/01:00am 26.4 25.0 9.7 35 9.3 WNW 7 9 4 5 1011.1 1010.2 0.0
13/12:30am 27.6 26.8 11.6 37 9.2 N 7 9 4 5 1011.1 1010.2 0.0
13/12:00am 28.0 26.3 11.1 35 9.7 N 11 15 6 8 1011.3 1010.5 0.0
 
Date/Time
EST
Temp
°C
App
Temp
°C
Dew
Point
°C
Rel
Hum
%
Delta-T
°C
Wind Press
QNH
hPa
Press
MSL
hPa
Rain since
9am
mm
Dir  Spd
km/h
Gust
km/h
Spd
kts
Gust
kts
12/11:30pm 29.3 27.4 11.8 34 10.2 NNE 13 13 7 7 1011.5 1010.7 0.0
12/11:00pm 30.6 29.1 13.0 34 10.5 N 13 19 7 10 1011.5 1010.7 0.0

Other formats

Comma delimited format used in spreadsheet applications
http://www.bom.gov.au/fwo/IDQ60801/IDQ60801.94337.axf

JavaScript Object Notation format (JSON) in row-major order
http://www.bom.gov.au/fwo/IDQ60801/IDQ60801.94337.json

Data quality

Most of these data are generated automatically and are frequently updated. Quality checks on data are not normally performed. It is possible for incorrect values to appear. Refer to information at About Latest Weather Observations and please check the disclaimer before using these data.